Time;durP1;ratioP1;P1;durP2;ratioP2;P2;SDS_P1;SDS_P2;PMS_P1;PMS_P2;Temp;Humidity;BMP_temperature;BMP_pressure;BME280_temperature;BME280_humidity;BME280_pressure;Samples;Min_cycle;Max_cycle;Signal;HPM_P1;HPM_P2
2021/05/05 00:05:33;;;;;;;0.60;0.50;;;12.50;60.50;;;;;;20586550;28;20477;-78
2021/05/05 00:15:34;;;;;;;0.60;0.60;;;12.50;60.50;;;;;;20585826;28;20030;-78
2021/05/05 00:25:34;;;;;;;2.05;0.70;;;12.40;60.50;;;;;;20569148;28;20070;-78
2021/05/05 00:35:35;;;;;;;1.90;0.67;;;12.40;60.50;;;;;;20568690;28;20088;-79
2021/05/05 00:45:35;;;;;;;0.40;0.40;;;12.40;60.50;;;;;;20535779;28;20385;-79
2021/05/05 00:55:36;;;;;;;1.48;0.93;;;12.40;60.50;;;;;;20551727;28;20393;-79
2021/05/05 01:05:37;;;;;;;2.15;0.60;;;12.40;60.40;;;;;;20566092;28;20041;-79
2021/05/05 01:15:38;;;;;;;0.70;0.52;;;12.40;60.30;;;;;;20579910;28;20038;-78
2021/05/05 01:25:40;;;;;;;1.30;0.80;;;12.40;60.40;;;;;;20564577;28;20350;-78
2021/05/05 01:35:41;;;;;;;1.10;0.50;;;12.40;60.30;;;;;;20564228;28;20043;-79
2021/05/05 01:45:42;;;;;;;0.43;0.40;;;12.40;60.30;;;;;;20563574;28;20637;-79
2021/05/05 01:55:44;;;;;;;1.48;0.57;;;12.40;60.30;;;;;;20579051;28;20069;-80
2021/05/05 02:05:47;;;;;;;2.25;1.00;;;12.40;60.30;;;;;;20562351;28;20046;-79
2021/05/05 02:16:05;;;;;;;0.68;0.63;;;12.40;60.30;;;;;;20547884;28;20035;-80
2021/05/05 02:26:11;;;;;;;1.10;0.60;;;12.40;60.40;;;;;;20565898;28;20563;-80
2021/05/05 02:36:13;;;;;;;2.25;0.60;;;12.30;60.40;;;;;;20545897;28;20037;-79
2021/05/05 02:46:16;;;;;;;0.60;0.40;;;12.30;60.40;;;;;;20592539;28;20081;-79
2021/05/05 02:56:17;;;;;;;1.35;0.57;;;12.30;60.40;;;;;;20561169;28;20042;-79
2021/05/05 03:06:17;;;;;;;1.25;0.60;;;12.30;60.20;;;;;;20591074;28;20461;-79
2021/05/05 03:16:18;;;;;;;2.33;0.50;;;12.30;60.10;;;;;;20574280;28;20229;-79
2021/05/05 03:26:18;;;;;;;0.30;0.30;;;12.30;60.00;;;;;;20542060;28;20340;-79
2021/05/05 03:36:19;;;;;;;0.40;0.40;;;12.30;60.00;;;;;;20572989;28;20389;-80
2021/05/05 03:46:20;;;;;;;1.77;0.60;;;12.30;60.00;;;;;;20572130;28;20397;-81
2021/05/05 03:56:20;;;;;;;0.47;0.35;;;12.30;60.00;;;;;;20571595;28;20109;-80
2021/05/05 04:06:21;;;;;;;3.57;1.40;;;12.30;60.10;;;;;;20588047;28;20062;-80
2021/05/05 04:16:21;;;;;;;1.10;0.60;;;12.20;60.20;;;;;;20570108;28;20369;-80
2021/05/05 04:26:22;;;;;;;1.50;0.43;;;12.30;60.30;;;;;;20584778;28;20141;-80
2021/05/05 04:36:23;;;;;;;0.77;0.50;;;12.20;60.40;;;;;;20584285;28;20321;-78
2021/05/05 04:46:23;;;;;;;2.13;0.65;;;12.20;60.50;;;;;;20584693;28;20050;-81
2021/05/05 04:56:24;;;;;;;0.40;0.40;;;12.20;60.60;;;;;;20570493;28;20046;-77
2021/05/05 05:06:24;;;;;;;2.63;0.50;;;12.20;60.70;;;;;;20619516;28;20031;-79
2021/05/05 05:16:25;;;;;;;1.25;0.47;;;12.20;60.80;;;;;;20648824;28;20114;-81
2021/05/05 05:26:25;;;;;;;2.25;0.32;;;12.20;60.90;;;;;;20623659;28;20424;-74
2021/05/05 05:36:26;;;;;;;1.75;0.40;;;12.20;61.00;;;;;;20630855;28;20384;-78
2021/05/05 05:46:27;;;;;;;0.38;0.30;;;12.20;61.00;;;;;;20607687;28;20145;-78
2021/05/05 05:56:28;;;;;;;0.43;0.40;;;12.20;61.00;;;;;;20633722;28;20077;-78
2021/05/05 06:06:29;;;;;;;0.45;0.40;;;12.20;61.00;;;;;;20644710;28;20034;-79
2021/05/05 06:16:30;;;;;;;1.98;0.50;;;12.30;61.10;;;;;;20643947;28;20054;-79
2021/05/05 06:26:31;;;;;;;1.02;0.57;;;12.20;61.10;;;;;;20613755;28;20097;-78
2021/05/05 06:36:32;;;;;;;2.78;0.50;;;12.20;61.10;;;;;;20573348;28;20041;-76
2021/05/05 06:46:33;;;;;;;2.70;0.93;;;12.20;61.00;;;;;;20619528;28;20566;-75
2021/05/05 06:56:34;;;;;;;0.82;0.43;;;12.30;60.80;;;;;;20607025;28;20477;-75
2021/05/05 07:06:34;;;;;;;1.67;0.60;;;12.30;60.70;;;;;;20643368;28;20037;-75
2021/05/05 07:16:35;;;;;;;1.75;0.47;;;12.20;60.60;;;;;;20672542;28;20082;-76
2021/05/05 07:26:37;;;;;;;1.13;0.47;;;12.20;60.50;;;;;;20661266;28;20084;-75
2021/05/05 07:36:42;;;;;;;1.17;0.38;;;12.20;60.30;;;;;;20676461;28;20292;-75
2021/05/05 07:57:22;;;;;;;1.05;0.50;;;12.20;60.00;;;;;;20516854;28;20050;-78
2021/05/05 08:07:23;;;;;;;5.05;1.20;;;12.20;60.00;;;;;;20634754;28;20731;-78
2021/05/05 08:17:23;;;;;;;2.80;0.95;;;12.20;59.90;;;;;;20629302;28;20035;-77
2021/05/05 08:27:24;;;;;;;7.72;0.93;;;12.20;59.70;;;;;;20542993;28;20093;-75
2021/05/05 08:37:25;;;;;;;4.75;1.02;;;12.20;59.60;;;;;;20636415;28;20522;-75
2021/05/05 08:47:26;;;;;;;2.92;1.08;;;12.20;59.60;;;;;;21032400;23;20496;-77
2021/05/05 08:57:26;;;;;;;7.95;1.13;;;12.20;59.40;;;;;;20590796;28;20117;-75
2021/05/05 09:07:28;;;;;;;5.80;1.47;;;12.30;59.40;;;;;;20662289;28;20066;-75
2021/05/05 09:17:31;;;;;;;1.70;0.70;;;12.20;59.20;;;;;;20618446;28;20374;-74
2021/05/05 09:27:35;;;;;;;4.75;0.90;;;12.30;59.00;;;;;;20580819;28;20042;-74
2021/05/05 09:37:35;;;;;;;4.55;0.93;;;12.20;58.80;;;;;;20614563;28;20421;-77
2021/05/05 09:47:56;;;;;;;6.07;0.75;;;12.20;58.60;;;;;;20625127;28;20046;-75
2021/05/05 09:57:56;;;;;;;2.25;1.00;;;12.20;58.30;;;;;;20643241;28;20042;-79
2021/05/05 10:07:59;;;;;;;3.00;0.98;;;12.20;58.20;;;;;;20641650;28;20041;-74
2021/05/05 10:18:00;;;;;;;1.70;0.82;;;12.10;57.90;;;;;;20565787;28;20042;-76
2021/05/05 10:28:00;;;;;;;4.82;1.08;;;12.30;57.90;;;;;;20584236;28;20065;-75
2021/05/05 10:38:01;;;;;;;1.85;0.90;;;12.20;57.70;;;;;;20588534;28;20113;-81
2021/05/05 10:48:08;;;;;;;4.85;1.13;;;12.20;57.50;;;;;;20605593;28;20077;-77
2021/05/05 10:58:12;;;;;;;1.95;0.82;;;12.10;57.10;;;;;;20643952;28;20056;-77
2021/05/05 11:08:26;;;;;;;3.22;0.75;;;12.10;57.10;;;;;;20662140;28;20070;-77
2021/05/05 11:18:27;;;;;;;1.83;0.70;;;12.10;57.20;;;;;;20659849;28;20030;-78
2021/05/05 11:28:55;;;;;;;2.88;0.90;;;12.20;57.20;;;;;;20676663;28;20109;-76
2021/05/05 11:38:56;;;;;;;2.20;0.70;;;12.10;56.80;;;;;;20660380;28;20069;-76
2021/05/05 11:48:56;;;;;;;3.00;1.17;;;12.10;56.50;;;;;;20635905;28;20070;-77
2021/05/05 11:59:01;;;;;;;4.32;1.33;;;12.20;56.30;;;;;;20636115;28;20229;-81
2021/05/05 12:09:02;;;;;;;3.83;1.02;;;12.10;56.10;;;;;;20657929;28;20169;-79
2021/05/05 12:19:08;;;;;;;2.65;0.80;;;12.10;55.70;;;;;;20672909;28;20109;-79
2021/05/05 12:29:09;;;;;;;1.88;0.80;;;12.20;55.50;;;;;;20659392;28;20061;-76
2021/05/05 12:39:12;;;;;;;2.90;0.40;;;12.20;55.30;;;;;;20652283;28;20038;-75
2021/05/05 12:49:15;;;;;;;3.80;0.60;;;12.20;55.20;;;;;;20626754;28;20092;-75
2021/05/05 12:59:20;;;;;;;0.55;0.30;;;12.20;55.40;;;;;;20630531;28;20123;-75
2021/05/05 13:09:22;;;;;;;5.75;0.63;;;12.10;56.50;;;;;;20628087;28;20042;-75
2021/05/05 13:20:15;;;;;;;3.20;0.50;;;12.10;57.40;;;;;;20636379;28;20042;-75
2021/05/05 13:30:37;;;;;;;0.57;0.30;;;12.10;58.20;;;;;;20602385;28;20108;-79
2021/05/05 13:40:46;;;;;;;3.50;0.75;;;12.10;58.90;;;;;;20646478;28;20488;-76
2021/05/05 13:50:46;;;;;;;1.55;0.52;;;12.20;59.60;;;;;;20660944;28;20038;-75
2021/05/05 14:00:47;;;;;;;2.38;1.05;;;12.20;60.20;;;;;;20647952;28;20385;-78
2021/05/05 14:10:48;;;;;;;4.20;1.10;;;12.20;60.50;;;;;;20629089;28;20544;-76
2021/05/05 14:20:49;;;;;;;5.22;1.25;;;12.30;60.70;;;;;;20631807;28;20027;-75
2021/05/05 14:30:50;;;;;;;4.65;1.00;;;12.20;61.00;;;;;;20645572;28;20507;-79
2021/05/05 14:40:51;;;;;;;9.10;1.50;;;12.20;62.00;;;;;;20645482;28;20054;-76
2021/05/05 14:50:52;;;;;;;18.02;1.52;;;12.20;61.50;;;;;;20575321;28;20711;-82
2021/05/05 15:00:52;;;;;;;6.10;0.93;;;12.20;61.90;;;;;;20422787;28;20037;-81
2021/05/05 15:41:57;;;;;;;4.05;0.85;;;12.20;62.10;;;;;;20659179;28;20031;-74
2021/05/05 15:51:58;;;;;;;4.28;0.75;;;12.20;62.00;;;;;;20476833;28;20490;-78
2021/05/05 16:02:36;;;;;;;4.88;0.98;;;12.20;61.80;;;;;;20647344;28;20038;-74
2021/05/05 16:23:08;;;;;;;2.03;0.65;;;12.30;61.40;;;;;;20669752;28;20026;-77
2021/05/05 16:53:44;;;;;;;3.30;0.70;;;12.20;61.60;;;;;;20650708;28;20073;-80
2021/05/05 17:14:04;;;;;;;2.25;0.95;;;12.20;61.60;;;;;;20663911;28;20053;-80
2021/05/05 17:24:33;;;;;;;5.60;1.20;;;12.20;61.70;;;;;;20647489;28;20034;-78
2021/05/05 17:44:58;;;;;;;6.20;1.15;;;12.20;62.00;;;;;;20647207;28;20173;-75
2021/05/05 18:26:06;;;;;;;5.03;1.08;;;12.10;61.30;;;;;;20658636;28;20030;-77
2021/05/05 18:36:08;;;;;;;6.10;1.50;;;12.00;60.80;;;;;;20627953;28;20093;-77
2021/05/05 19:07:06;;;;;;;2.22;0.88;;;12.10;60.10;;;;;;20644277;28;20042;-77
2021/05/05 19:17:18;;;;;;;3.35;1.17;;;12.00;60.20;;;;;;20657471;28;20030;-78
2021/05/05 19:33:16;;;;;;;7.80;2.10;;;12.00;60.10;;;;;;20661557;28;20482;-77
2021/05/05 19:39:22;;;;;;;5.85;1.35;;;12.00;60.30;;;;;;20605997;28;20149;-77
2021/05/05 20:32:49;;;;;;;4.68;1.42;;;11.90;58.00;;;;;;20595692;28;20483;-77
2021/05/05 20:41:11;;;;;;;5.10;1.42;;;11.90;57.90;;;;;;20609283;28;20042;-77
2021/05/05 20:51:39;;;;;;;10.15;1.88;;;11.80;58.00;;;;;;20611416;28;20405;-78
2021/05/05 22:34:55;;;;;;;8.73;1.73;;;11.70;57.50;;;;;;20577826;28;20045;-77
2021/05/05 23:15:47;;;;;;;2.55;1.02;;;11.70;57.50;;;;;;20591400;28;20093;-78
